Aviation Digital Data Service (ADDS)

Output produced by METARs form (1814 UTC 19 April 2019)
found at http://www.aviationweather.gov/metar/data/
 
METAR text: LEMO 191800Z 26010KT 230V310 9999 VCTS SCT035CB SCT062 16/10 Q1014 NOSIG
Conditions at: LEMO (MORON (SP-USAFB), ES) observed 1800 UTC 19 April 2019
Temperature: 16.0°C (61°F)
Dewpoint: 10.0°C (50°F) [RH = 68%]
Pressure (altimeter): 29.94 inches Hg (1014.0 mb)
Winds: from the W (260 degrees) at 12 MPH (10 knots; 5.1 m/s)
Visibility: 6 or more miles (10+ km)
Ceiling: at least 12,000 feet AGL
Clouds: scattered clouds at 3500 feet AGL
scattered clouds at 6200 feet AGL
Weather: VCTS  (thunderstorm in vicinity)

METAR text: LEMO 191700Z 26015KT 220V290 9999 FEW035CB SCT060 17/09 Q1014 NOSIG
Conditions at: LEMO (MORON (SP-USAFB), ES) observed 1700 UTC 19 April 2019
Temperature: 17.0°C (63°F)
Dewpoint: 9.0°C (48°F) [RH = 59%]
Pressure (altimeter): 29.94 inches Hg (1014.0 mb)
Winds: from the W (260 degrees) at 17 MPH (15 knots; 7.7 m/s)
Visibility: 6 or more miles (10+ km)
Ceiling: at least 12,000 feet AGL
Clouds: few clouds at 3500 feet AGL
scattered clouds at 6000 feet AGL
Weather: no significant weather observed at this time

METAR text: LEMO 191600Z 26014KT 210V290 9999 FEW033TCU SCT045 17/11 Q1013 NOSIG
Conditions at: LEMO (MORON (SP-USAFB), ES) observed 1600 UTC 19 April 2019
Temperature: 17.0°C (63°F)
Dewpoint: 11.0°C (52°F) [RH = 68%]
Pressure (altimeter): 29.91 inches Hg (1013.0 mb)
Winds: from the W (260 degrees) at 16 MPH (14 knots; 7.2 m/s)
Visibility: 6 or more miles (10+ km)
Ceiling: at least 12,000 feet AGL
Clouds: few clouds at 3300 feet AGL
scattered clouds at 4500 feet AGL
Weather: no significant weather observed at this time

METAR text: LEMO 191500Z 22008KT 170V260 9999 FEW042TCU SCT045 20/11 Q1013 NOSIG
Conditions at: LEMO (MORON (SP-USAFB), ES) observed 1500 UTC 19 April 2019
Temperature: 20.0°C (68°F)
Dewpoint: 11.0°C (52°F) [RH = 56%]
Pressure (altimeter): 29.91 inches Hg (1013.0 mb)
Winds: from the SW (220 degrees) at 9 MPH (8 knots; 4.1 m/s)
Visibility: 6 or more miles (10+ km)
Ceiling: at least 12,000 feet AGL
Clouds: few clouds at 4200 feet AGL
scattered clouds at 4500 feet AGL
Weather: no significant weather observed at this time

METAR text: LEMO 191400Z VRB04KT 9999 FEW043TCU BKN046 20/09 Q1013 NOSIG
Conditions at: LEMO (MORON (SP-USAFB), ES) observed 1400 UTC 19 April 2019
Temperature: 20.0°C (68°F)
Dewpoint: 9.0°C (48°F) [RH = 49%]
Pressure (altimeter): 29.91 inches Hg (1013.0 mb)
Winds: variable direction winds at 5 MPH (4 knots; 2.1 m/s)
Visibility: 6 or more miles (10+ km)
Ceiling: 4600 feet AGL
Clouds: few clouds at 4300 feet AGL
broken clouds at 4600 feet AGL
Weather: no significant weather observed at this time

METAR text: LEMO 191300Z VRB01KT 9999 FEW025CB BKN050 18/09 Q1014 NOSIG
Conditions at: LEMO (MORON (SP-USAFB), ES) observed 1300 UTC 19 April 2019
Temperature: 18.0°C (64°F)
Dewpoint: 9.0°C (48°F) [RH = 56%]
Pressure (altimeter): 29.94 inches Hg (1014.0 mb)
Winds: variable direction winds at 1 MPH (1 knots; 0.5 m/s)
Visibility: 6 or more miles (10+ km)
Ceiling: 5000 feet AGL
Clouds: few clouds at 2500 feet AGL
broken clouds at 5000 feet AGL
Weather: no significant weather observed at this time

METAR text: LEMO 191200Z VRB01KT 9999 FEW025CB BKN030 19/09 Q1014 NOSIG
Conditions at: LEMO (MORON (SP-USAFB), ES) observed 1200 UTC 19 April 2019
Temperature: 19.0°C (66°F)
Dewpoint: 9.0°C (48°F) [RH = 52%]
Pressure (altimeter): 29.94 inches Hg (1014.0 mb)
Winds: variable direction winds at 1 MPH (1 knots; 0.5 m/s)
Visibility: 6 or more miles (10+ km)
Ceiling: 3000 feet AGL
Clouds: few clouds at 2500 feet AGL
broken clouds at 3000 feet AGL
Weather: no significant weather observed at this time

METAR text: LEMO 191100Z 19003KT 140V270 9999 BKN025 FEW025TCU 17/10 Q1015 NOSIG
Conditions at: LEMO (MORON (SP-USAFB), ES) observed 1100 UTC 19 April 2019
Temperature: 17.0°C (63°F)
Dewpoint: 10.0°C (50°F) [RH = 63%]
Pressure (altimeter): 29.97 inches Hg (1015.0 mb)
Winds: from the S (190 degrees) at 3 MPH (3 knots; 1.5 m/s)
Visibility: 6 or more miles (10+ km)
Ceiling: 2500 feet AGL
Clouds: broken clouds at 2500 feet AGL
few clouds at 2500 feet AGL
Weather: no significant weather observed at this time

METAR text: LEMO 191000Z VRB01KT 9999 SCT016 FEW020TCU 15/10 Q1015 NOSIG
Conditions at: LEMO (MORON (SP-USAFB), ES) observed 1000 UTC 19 April 2019
Temperature: 15.0°C (59°F)
Dewpoint: 10.0°C (50°F) [RH = 72%]
Pressure (altimeter): 29.97 inches Hg (1015.0 mb)
Winds: variable direction winds at 1 MPH (1 knots; 0.5 m/s)
Visibility: 6 or more miles (10+ km)
Ceiling: at least 12,000 feet AGL
Clouds: scattered clouds at 1600 feet AGL
few clouds at 2000 feet AGL
Weather: no significant weather observed at this time

METAR text: LEMO 190900Z VRB01KT 9999 SCT012 15/11 Q1015 NOSIG
Conditions at: LEMO (MORON (SP-USAFB), ES) observed 0900 UTC 19 April 2019
Temperature: 15.0°C (59°F)
Dewpoint: 11.0°C (52°F) [RH = 77%]
Pressure (altimeter): 29.97 inches Hg (1015.0 mb)
Winds: variable direction winds at 1 MPH (1 knots; 0.5 m/s)
Visibility: 6 or more miles (10+ km)
Ceiling: at least 12,000 feet AGL
Clouds: scattered clouds at 1200 feet AGL
Weather: no significant weather observed at this time

METAR text: LEMO 190800Z VRB01KT 9999 FEW015 BKN018 13/11 Q1015 NOSIG
Conditions at: LEMO (MORON (SP-USAFB), ES) observed 0800 UTC 19 April 2019
Temperature: 13.0°C (55°F)
Dewpoint: 11.0°C (52°F) [RH = 88%]
Pressure (altimeter): 29.97 inches Hg (1015.0 mb)
Winds: variable direction winds at 1 MPH (1 knots; 0.5 m/s)
Visibility: 6 or more miles (10+ km)
Ceiling: 1800 feet AGL
Clouds: few clouds at 1500 feet AGL
broken clouds at 1800 feet AGL
Weather: no significant weather observed at this time

METAR text: LEMO 190741Z 07003KT 030V110 9999 FEW015 BKN018 12/10 Q1015 NOSIG
Conditions at: LEMO (MORON (SP-USAFB), ES) observed 0741 UTC 19 April 2019
Temperature: 12.0°C (54°F)
Dewpoint: 10.0°C (50°F) [RH = 88%]
Pressure (altimeter): 29.97 inches Hg (1015.0 mb)
Winds: from the ENE (70 degrees) at 3 MPH (3 knots; 1.5 m/s)
Visibility: 6 or more miles (10+ km)
Ceiling: 1800 feet AGL
Clouds: few clouds at 1500 feet AGL
broken clouds at 1800 feet AGL
Weather: no significant weather observed at this time

METAR text: LEMO 190700Z VRB01KT 9999 BKN014 BKN016 10/09 Q1015 NOSIG
Conditions at: LEMO (MORON (SP-USAFB), ES) observed 0700 UTC 19 April 2019
Temperature: 10.0°C (50°F)
Dewpoint: 9.0°C (48°F) [RH = 93%]
Pressure (altimeter): 29.97 inches Hg (1015.0 mb)
Winds: variable direction winds at 1 MPH (1 knots; 0.5 m/s)
Visibility: 6 or more miles (10+ km)
Ceiling: 1400 feet AGL
Clouds: broken clouds at 1400 feet AGL
broken clouds at 1600 feet AGL
Weather: no significant weather observed at this time

METAR text: LEMO 190600Z VRB01KT 9999 BKN011 BKN013 08/07 Q1014 NOSIG
Conditions at: LEMO (MORON (SP-USAFB), ES) observed 0600 UTC 19 April 2019
Temperature: 8.0°C (46°F)
Dewpoint: 7.0°C (45°F) [RH = 93%]
Pressure (altimeter): 29.94 inches Hg (1014.0 mb)
Winds: variable direction winds at 1 MPH (1 knots; 0.5 m/s)
Visibility: 6 or more miles (10+ km)
Ceiling: 1100 feet AGL
Clouds: broken clouds at 1100 feet AGL
broken clouds at 1300 feet AGL
Weather: no significant weather observed at this time

METAR text: LEMO 190500Z 00000KT 9999 SCT011 08/08 Q1014 NOSIG
Conditions at: LEMO (MORON (SP-USAFB), ES) observed 0500 UTC 19 April 2019
Temperature: 8.0°C (46°F)
Dewpoint: 8.0°C (46°F) [RH = 100%]
Pressure (altimeter): 29.94 inches Hg (1014.0 mb)
Winds: calm
Visibility: 6 or more miles (10+ km)
Ceiling: at least 12,000 feet AGL
Clouds: scattered clouds at 1100 feet AGL
Weather: no significant weather observed at this time

METAR text: LEMO 190400Z VRB01KT 9999 FEW041 09/08 Q1014 NOSIG
Conditions at: LEMO (MORON (SP-USAFB), ES) observed 0400 UTC 19 April 2019
Temperature: 9.0°C (48°F)
Dewpoint: 8.0°C (46°F) [RH = 93%]
Pressure (altimeter): 29.94 inches Hg (1014.0 mb)
Winds: variable direction winds at 1 MPH (1 knots; 0.5 m/s)
Visibility: 6 or more miles (10+ km)
Ceiling: at least 12,000 feet AGL
Clouds: few clouds at 4100 feet AGL
Weather: no significant weather observed at this time

METAR text: LEMO 190300Z 16004KT 120V190 9999 BKN057 10/09 Q1014 NOSIG
Conditions at: LEMO (MORON (SP-USAFB), ES) observed 0300 UTC 19 April 2019
Temperature: 10.0°C (50°F)
Dewpoint: 9.0°C (48°F) [RH = 93%]
Pressure (altimeter): 29.94 inches Hg (1014.0 mb)
Winds: from the SSE (160 degrees) at 5 MPH (4 knots; 2.1 m/s)
Visibility: 6 or more miles (10+ km)
Ceiling: 5700 feet AGL
Clouds: broken clouds at 5700 feet AGL
Weather: no significant weather observed at this time

METAR text: LEMO 190200Z 18003KT 9999 FEW042 10/09 Q1014 NOSIG
Conditions at: LEMO (MORON (SP-USAFB), ES) observed 0200 UTC 19 April 2019
Temperature: 10.0°C (50°F)
Dewpoint: 9.0°C (48°F) [RH = 93%]
Pressure (altimeter): 29.94 inches Hg (1014.0 mb)
Winds: from the S (180 degrees) at 3 MPH (3 knots; 1.5 m/s)
Visibility: 6 or more miles (10+ km)
Ceiling: at least 12,000 feet AGL
Clouds: few clouds at 4200 feet AGL
Weather: no significant weather observed at this time

METAR text: LEMO 190100Z 17005KT 9999 FEW045 10/09 Q1015 NOSIG
Conditions at: LEMO (MORON (SP-USAFB), ES) observed 0100 UTC 19 April 2019
Temperature: 10.0°C (50°F)
Dewpoint: 9.0°C (48°F) [RH = 93%]
Pressure (altimeter): 29.97 inches Hg (1015.0 mb)
Winds: from the S (170 degrees) at 6 MPH (5 knots; 2.6 m/s)
Visibility: 6 or more miles (10+ km)
Ceiling: at least 12,000 feet AGL
Clouds: few clouds at 4500 feet AGL
Weather: no significant weather observed at this time

METAR text: LEMO 190000Z 18004KT 9999 FEW044 10/09 Q1015 NOSIG
Conditions at: LEMO (MORON (SP-USAFB), ES) observed 0000 UTC 19 April 2019
Temperature: 10.0°C (50°F)
Dewpoint: 9.0°C (48°F) [RH = 93%]
Pressure (altimeter): 29.97 inches Hg (1015.0 mb)
Winds: from the S (180 degrees) at 5 MPH (4 knots; 2.1 m/s)
Visibility: 6 or more miles (10+ km)
Ceiling: at least 12,000 feet AGL
Clouds: few clouds at 4400 feet AGL
Weather: no significant weather observed at this time

METAR text: LEMO 182300Z 16004KT CAVOK 09/08 Q1015 NOSIG
Conditions at: LEMO (MORON (SP-USAFB), ES) observed 2300 UTC 18 April 2019
Temperature: 9.0°C (48°F)
Dewpoint: 8.0°C (46°F) [RH = 93%]
Pressure (altimeter): 29.97 inches Hg (1015.0 mb)
Winds: from the SSE (160 degrees) at 5 MPH (4 knots; 2.1 m/s)
Visibility: 6 or more miles (10+ km)
Ceiling: ceiling and visibility are OK
Clouds: unknown
Weather: no significant weather observed at this time

METAR text: LEMO 182200Z 18004KT CAVOK 10/09 Q1015 NOSIG
Conditions at: LEMO (MORON (SP-USAFB), ES) observed 2200 UTC 18 April 2019
Temperature: 10.0°C (50°F)
Dewpoint: 9.0°C (48°F) [RH = 93%]
Pressure (altimeter): 29.97 inches Hg (1015.0 mb)
Winds: from the S (180 degrees) at 5 MPH (4 knots; 2.1 m/s)
Visibility: 6 or more miles (10+ km)
Ceiling: ceiling and visibility are OK
Clouds: unknown
Weather: no significant weather observed at this time

METAR text: LEMO 182100Z 20004KT 9999 FEW020 10/09 Q1015 NOSIG
Conditions at: LEMO (MORON (SP-USAFB), ES) observed 2100 UTC 18 April 2019
Temperature: 10.0°C (50°F)
Dewpoint: 9.0°C (48°F) [RH = 93%]
Pressure (altimeter): 29.97 inches Hg (1015.0 mb)
Winds: from the SSW (200 degrees) at 5 MPH (4 knots; 2.1 m/s)
Visibility: 6 or more miles (10+ km)
Ceiling: at least 12,000 feet AGL
Clouds: few clouds at 2000 feet AGL
Weather: no significant weather observed at this time

METAR text: LEMO 182000Z 17006KT 140V200 9999 FEW019 12/10 Q1014 NOSIG
Conditions at: LEMO (MORON (SP-USAFB), ES) observed 2000 UTC 18 April 2019
Temperature: 12.0°C (54°F)
Dewpoint: 10.0°C (50°F) [RH = 88%]
Pressure (altimeter): 29.94 inches Hg (1014.0 mb)
Winds: from the S (170 degrees) at 7 MPH (6 knots; 3.1 m/s)
Visibility: 6 or more miles (10+ km)
Ceiling: at least 12,000 feet AGL
Clouds: few clouds at 1900 feet AGL
Weather: no significant weather observed at this time

METAR text: LEMO 181900Z 15003KT 130V200 9999 FEW055 13/11 Q1014 NOSIG
Conditions at: LEMO (MORON (SP-USAFB), ES) observed 1900 UTC 18 April 2019
Temperature: 13.0°C (55°F)
Dewpoint: 11.0°C (52°F) [RH = 88%]
Pressure (altimeter): 29.94 inches Hg (1014.0 mb)
Winds: from the SSE (150 degrees) at 3 MPH (3 knots; 1.5 m/s)
Visibility: 6 or more miles (10+ km)
Ceiling: at least 12,000 feet AGL
Clouds: few clouds at 5500 feet AGL
Weather: no significant weather observed at this time

METAR text: LEMO 181800Z VRB01KT 9999 BKN053 14/11 Q1014 NOSIG
Conditions at: LEMO (MORON (SP-USAFB), ES) observed 1800 UTC 18 April 2019
Temperature: 14.0°C (57°F)
Dewpoint: 11.0°C (52°F) [RH = 82%]
Pressure (altimeter): 29.94 inches Hg (1014.0 mb)
Winds: variable direction winds at 1 MPH (1 knots; 0.5 m/s)
Visibility: 6 or more miles (10+ km)
Ceiling: 5300 feet AGL
Clouds: broken clouds at 5300 feet AGL
Weather: no significant weather observed at this time

METAR text: LEMO 181700Z 28004KT 210V320 9999 -RA FEW021TCU BKN058 12/11 Q1013 TEMPO 4000 SHRA
Conditions at: LEMO (MORON (SP-USAFB), ES) observed 1700 UTC 18 April 2019
Temperature: 12.0°C (54°F)
Dewpoint: 11.0°C (52°F) [RH = 94%]
Pressure (altimeter): 29.91 inches Hg (1013.0 mb)
Winds: from the W (280 degrees) at 5 MPH (4 knots; 2.1 m/s)
Visibility: 6 or more miles (10+ km)
Ceiling: 5800 feet AGL
Clouds: few clouds at 2100 feet AGL
broken clouds at 5800 feet AGL
Weather: -RA  (light rain)

METAR text: LEMO 181636Z 30005KT 260V320 7000 FEW023CB 12/10 Q1013 RESHRA TEMPO 4000 SHRA
Conditions at: LEMO (MORON (SP-USAFB), ES) observed 1636 UTC 18 April 2019
Temperature: 12.0°C (54°F)
Dewpoint: 10.0°C (50°F) [RH = 88%]
Pressure (altimeter): 29.91 inches Hg (1013.0 mb)
Winds: from the WNW (300 degrees) at 6 MPH (5 knots; 2.6 m/s)
Visibility: 4 miles ( 7 km)
Ceiling: at least 12,000 feet AGL
Clouds: few clouds at 2300 feet AGL
Weather: no significant weather observed at this time

METAR text: LEMO 181600Z 29014KT 260V320 6000 -SHRA FEW012CB BKN050 11/09 Q1013 TEMPO 4000 SHRA
Conditions at: LEMO (MORON (SP-USAFB), ES) observed 1600 UTC 18 April 2019
Temperature: 11.0°C (52°F)
Dewpoint: 9.0°C (48°F) [RH = 87%]
Pressure (altimeter): 29.91 inches Hg (1013.0 mb)
Winds: from the WNW (290 degrees) at 16 MPH (14 knots; 7.2 m/s)
Visibility: 4 miles ( 6 km)
Ceiling: 5000 feet AGL
Clouds: few clouds at 1200 feet AGL
broken clouds at 5000 feet AGL
Weather: -SHRA  (light rain showers)

METAR text: LEMO 181533Z 27011KT 240V300 4000 TSRA FEW009CB SCT042 OVC050 11/09 Q1013 TEMPO 4000 TSRA
Conditions at: LEMO (MORON (SP-USAFB), ES) observed 1533 UTC 18 April 2019
Temperature: 11.0°C (52°F)
Dewpoint: 9.0°C (48°F) [RH = 87%]
Pressure (altimeter): 29.91 inches Hg (1013.0 mb)
Winds: from the W (270 degrees) at 13 MPH (11 knots; 5.7 m/s)
Visibility: 2.49 miles (4.01 km)
Ceiling: 5000 feet AGL
Clouds: few clouds at 900 feet AGL
scattered clouds at 4200 feet AGL
overcast cloud deck at 5000 feet AGL
Weather: TSRA  (rain associated with thunderstorm(s))

METAR text: LEMO 181521Z 30013G24KT 270V330 0800 R20/P2000 +TSRAGR FEW011CB SCT034 OVC050 13/10 Q1013 TEMPO 4000 TSRA
Conditions at: LEMO (MORON (SP-USAFB), ES) observed 1521 UTC 18 April 2019
Temperature: 13.0°C (55°F)
Dewpoint: 10.0°C (50°F) [RH = 82%]
Pressure (altimeter): 29.91 inches Hg (1013.0 mb)
Winds: from the WNW (300 degrees) at 15 MPH (13 knots; 6.7 m/s)
gusting to 28 MPH (24 knots; 12.3 m/s)
Visibility: 0.50 miles (0.80 km)
Ceiling: 5000 feet AGL
Clouds: few clouds at 1100 feet AGL
scattered clouds at 3400 feet AGL
overcast cloud deck at 5000 feet AGL
Weather: +TSRA GR  (heavy rain associated with thunderstorm(s), hail)

METAR text: LEMO 181519Z 29014G24KT 260V330 0800 R20/P2000 +TSRA FEW011CB SCT035 BKN050 13/10 Q1013 TEMPO 4000 TSRA
Conditions at: LEMO (MORON (SP-USAFB), ES) observed 1519 UTC 18 April 2019
Temperature: 13.0°C (55°F)
Dewpoint: 10.0°C (50°F) [RH = 82%]
Pressure (altimeter): 29.91 inches Hg (1013.0 mb)
Winds: from the WNW (290 degrees) at 16 MPH (14 knots; 7.2 m/s)
gusting to 28 MPH (24 knots; 12.3 m/s)
Visibility: 0.50 miles (0.80 km)
Ceiling: 5000 feet AGL
Clouds: few clouds at 1100 feet AGL
scattered clouds at 3500 feet AGL
broken clouds at 5000 feet AGL
Weather: +TSRA  (heavy rain associated with thunderstorm(s))

METAR text: LEMO 181506Z 27012KT 230V300 5000 TSRA FEW029CB SCT035 BKN043 16/08 Q1012 TEMPO 4000 TSRA
Conditions at: LEMO (MORON (SP-USAFB), ES) observed 1506 UTC 18 April 2019
Temperature: 16.0°C (61°F)
Dewpoint: 8.0°C (46°F) [RH = 59%]
Pressure (altimeter): 29.88 inches Hg (1012.0 mb)
Winds: from the W (270 degrees) at 14 MPH (12 knots; 6.2 m/s)
Visibility: 3 miles ( 5 km)
Ceiling: 4300 feet AGL
Clouds: few clouds at 2900 feet AGL
scattered clouds at 3500 feet AGL
broken clouds at 4300 feet AGL
Weather: TSRA  (rain associated with thunderstorm(s))

METAR text: LEMO 181500Z 28012KT 250V320 9999 TS FEW029CB SCT033 BKN049 17/07 Q1012 TEMPO 4000 TSRA
Conditions at: LEMO (MORON (SP-USAFB), ES) observed 1500 UTC 18 April 2019
Temperature: 17.0°C (63°F)
Dewpoint: 7.0°C (45°F) [RH = 52%]
Pressure (altimeter): 29.88 inches Hg (1012.0 mb)
Winds: from the W (280 degrees) at 14 MPH (12 knots; 6.2 m/s)
Visibility: 6 or more miles (10+ km)
Ceiling: 4900 feet AGL
Clouds: few clouds at 2900 feet AGL
scattered clouds at 3300 feet AGL
broken clouds at 4900 feet AGL
Weather: TS  (thunderstorm)

METAR text: LEMO 181400Z 25011KT 200V290 9999 VCTS SCT036CB 18/09 Q1012 TEMPO 4000 TSRA
Conditions at: LEMO (MORON (SP-USAFB), ES) observed 1400 UTC 18 April 2019
Temperature: 18.0°C (64°F)
Dewpoint: 9.0°C (48°F) [RH = 56%]
Pressure (altimeter): 29.88 inches Hg (1012.0 mb)
Winds: from the WSW (250 degrees) at 13 MPH (11 knots; 5.7 m/s)
Visibility: 6 or more miles (10+ km)
Ceiling: at least 12,000 feet AGL
Clouds: scattered clouds at 3600 feet AGL
Weather: VCTS  (thunderstorm in vicinity)

METAR text: LEMO 181300Z 24008KT 200V270 9999 SCT032TCU SCT042 BKN052 18/09 Q1013 NOSIG
Conditions at: LEMO (MORON (SP-USAFB), ES) observed 1300 UTC 18 April 2019
Temperature: 18.0°C (64°F)
Dewpoint: 9.0°C (48°F) [RH = 56%]
Pressure (altimeter): 29.91 inches Hg (1013.0 mb)
Winds: from the WSW (240 degrees) at 9 MPH (8 knots; 4.1 m/s)
Visibility: 6 or more miles (10+ km)
Ceiling: 5200 feet AGL
Clouds: scattered clouds at 3200 feet AGL
scattered clouds at 4200 feet AGL
broken clouds at 5200 feet AGL
Weather: no significant weather observed at this time

METAR text: LEMO 181200Z 26005KT 190V290 9999 SCT030TCU BKN035 16/10 Q1013 NOSIG
Conditions at: LEMO (MORON (SP-USAFB), ES) observed 1200 UTC 18 April 2019
Temperature: 16.0°C (61°F)
Dewpoint: 10.0°C (50°F) [RH = 68%]
Pressure (altimeter): 29.91 inches Hg (1013.0 mb)
Winds: from the W (260 degrees) at 6 MPH (5 knots; 2.6 m/s)
Visibility: 6 or more miles (10+ km)
Ceiling: 3500 feet AGL
Clouds: scattered clouds at 3000 feet AGL
broken clouds at 3500 feet AGL
Weather: no significant weather observed at this time

METAR text: LEMO 181100Z VRB02KT 9999 BKN023 BKN027 BKN032 17/11 Q1013 NOSIG
Conditions at: LEMO (MORON (SP-USAFB), ES) observed 1100 UTC 18 April 2019
Temperature: 17.0°C (63°F)
Dewpoint: 11.0°C (52°F) [RH = 68%]
Pressure (altimeter): 29.91 inches Hg (1013.0 mb)
Winds: variable direction winds at 2 MPH (2 knots; 1.0 m/s)
Visibility: 6 or more miles (10+ km)
Ceiling: 2300 feet AGL
Clouds: broken clouds at 2300 feet AGL
broken clouds at 2700 feet AGL
broken clouds at 3200 feet AGL
Weather: no significant weather observed at this time

METAR text: LEMO 181000Z 23004KT 170V280 9999 FEW016TCU SCT019 BKN034 15/10 Q1014 NOSIG
Conditions at: LEMO (MORON (SP-USAFB), ES) observed 1000 UTC 18 April 2019
Temperature: 15.0°C (59°F)
Dewpoint: 10.0°C (50°F) [RH = 72%]
Pressure (altimeter): 29.94 inches Hg (1014.0 mb)
Winds: from the SW (230 degrees) at 5 MPH (4 knots; 2.1 m/s)
Visibility: 6 or more miles (10+ km)
Ceiling: 3400 feet AGL
Clouds: few clouds at 1600 feet AGL
scattered clouds at 1900 feet AGL
broken clouds at 3400 feet AGL
Weather: no significant weather observed at this time

METAR text: LEMO 180900Z VRB02KT 9999 FEW096TCU 13/10 Q1014 NOSIG
Conditions at: LEMO (MORON (SP-USAFB), ES) observed 0900 UTC 18 April 2019
Temperature: 13.0°C (55°F)
Dewpoint: 10.0°C (50°F) [RH = 82%]
Pressure (altimeter): 29.94 inches Hg (1014.0 mb)
Winds: variable direction winds at 2 MPH (2 knots; 1.0 m/s)
Visibility: 6 or more miles (10+ km)
Ceiling: at least 12,000 feet AGL
Clouds: few clouds at 9600 feet AGL
Weather: no significant weather observed at this time

METAR text: LEMO 180800Z 21004KT 9999 FEW029CB 12/11 Q1014 NOSIG
Conditions at: LEMO (MORON (SP-USAFB), ES) observed 0800 UTC 18 April 2019
Temperature: 12.0°C (54°F)
Dewpoint: 11.0°C (52°F) [RH = 94%]
Pressure (altimeter): 29.94 inches Hg (1014.0 mb)
Winds: from the SSW (210 degrees) at 5 MPH (4 knots; 2.1 m/s)
Visibility: 6 or more miles (10+ km)
Ceiling: at least 12,000 feet AGL
Clouds: few clouds at 2900 feet AGL
Weather: no significant weather observed at this time

METAR text: LEMO 180700Z 15005KT 130V190 9999 FEW030CB BKN062 12/10 Q1013 NOSIG
Conditions at: LEMO (MORON (SP-USAFB), ES) observed 0700 UTC 18 April 2019
Temperature: 12.0°C (54°F)
Dewpoint: 10.0°C (50°F) [RH = 88%]
Pressure (altimeter): 29.91 inches Hg (1013.0 mb)
Winds: from the SSE (150 degrees) at 6 MPH (5 knots; 2.6 m/s)
Visibility: 6 or more miles (10+ km)
Ceiling: 6200 feet AGL
Clouds: few clouds at 3000 feet AGL
broken clouds at 6200 feet AGL
Weather: no significant weather observed at this time

Forecast for: LEMO (MORON (SP-USAFB), ES)
Text: TAF LEMO 191700Z 1918/2003 04005KT 9999 FEW025 SCT045
Forecast period: 1800 UTC 19 April 2019 to 0300 UTC 20 April 2019
Forecast type: FROM: standard forecast or significant change
Winds: from the NE (40 degrees) at 6 MPH (5 knots; 2.6 m/s)
Visibility: 6 or more miles 10+ km)
Ceiling: at least 12,000 feet AGL
Clouds: few clouds at 2500 feet AGL
scattered clouds at 4500 feet AGL
Weather: no significant weather forecast for this period
Text: PROB40
Forecast period: 1800 to 2000 UTC 19 April 2019
Forecast type: TEMPORARY: The following changes expected for less than half the time period
Visibility: 2.49 miles (4.01 km)
Ceiling: 3500 feet AGL
Clouds: scattered clouds at 3000 feet AGL
broken clouds at 3500 feet AGL
Weather: SHRA  (rain showers)
Text: TEMPO 1918/1920 4000 SHRA SCT030TCU BKN035
Forecast period: 1800 to 1900 UTC 19 April 2019
Forecast type: TEMPORARY: The following changes expected for less than half the time period
Winds: from the W (260 degrees) at 17 MPH (15 knots; 7.7 m/s)
gusting to 29 MPH (25 knots; 12.9 m/s)
Visibility: missing
Ceiling: at least 12,000 feet AGL
Clouds: scattered clouds at 2500 feet AGL
Weather: TSRA  (rain associated with thunderstorm(s))